createdAt,value
2019-01-09T00:00:22.662Z,82.91
2019-01-09T00:02:51.850Z,82.44
2019-01-09T00:05:28.329Z,82.70
2019-01-09T00:07:52.063Z,82.61
2019-01-09T00:10:21.256Z,82.54
2019-01-09T00:12:50.548Z,83.03
2019-01-09T00:15:20.501Z,82.96
2019-01-09T00:17:49.805Z,83.06
2019-01-09T00:20:19.059Z,83.27
2019-01-09T00:22:48.343Z,83.23
2019-01-09T00:25:17.551Z,83.03
2019-01-09T00:27:46.740Z,82.42
2019-01-09T00:30:15.983Z,81.55
2019-01-09T00:32:45.315Z,80.23
2019-01-09T00:35:14.478Z,78.88
2019-01-09T00:37:43.755Z,78.55
2019-01-09T00:40:12.961Z,77.96
2019-01-09T00:42:42.151Z,77.74
2019-01-09T00:45:11.483Z,77.51
2019-01-09T00:47:40.814Z,78.17
2019-01-09T00:50:12.517Z,79.38
2019-01-09T00:52:59.902Z,79.42
2019-01-09T00:55:29.154Z,80.24
2019-01-09T00:57:58.633Z,80.55
2019-01-09T01:00:28.929Z,80.42
2019-01-09T01:03:13.217Z,80.90
2019-01-09T01:05:54.271Z,80.33
2019-01-09T01:08:55.196Z,81.85
2019-01-09T01:11:53.255Z,85.26
2019-01-09T01:14:43.046Z,86.60
2019-01-09T01:17:39.305Z,86.83
2019-01-09T01:20:17.277Z,86.52
2019-01-09T01:23:05.817Z,86.67
2019-01-09T01:25:54.793Z,87.05
2019-01-09T01:28:36.002Z,87.13
2019-01-09T01:31:24.689Z,87.52
2019-01-09T01:33:56.947Z,87.50
2019-01-09T01:36:31.574Z,87.55
2019-01-09T01:39:21.148Z,86.53
2019-01-09T01:41:58.906Z,84.46
2019-01-09T01:44:39.742Z,83.60
2019-01-09T01:47:30.688Z,83.30
2019-01-09T01:50:23.541Z,83.82
2019-01-09T01:53:04.573Z,84.21
2019-01-09T01:56:05.286Z,84.25
2019-01-09T01:59:01.952Z,84.19
2019-01-09T02:01:40.278Z,84.04
2019-01-09T02:04:15.086Z,82.80
2019-01-09T02:07:08.023Z,82.89
2019-01-09T02:10:05.902Z,81.43
2019-01-09T02:12:50.202Z,80.66
2019-01-09T02:15:22.432Z,80.73
2019-01-09T02:17:57.435Z,80.67
2019-01-09T02:20:45.993Z,80.71
2019-01-09T02:23:33.267Z,80.32
2019-01-09T02:26:05.485Z,80.43
2019-01-09T02:28:37.724Z,80.69
2019-01-09T02:31:19.156Z,81.06
2019-01-09T02:33:48.342Z,81.35
2019-01-09T02:36:17.498Z,81.91
2019-01-09T02:38:46.678Z,82.14
2019-01-09T02:41:15.855Z,82.59
2019-01-09T02:43:45.048Z,82.99
2019-01-09T02:46:14.229Z,83.44
2019-01-09T02:48:43.420Z,84.63
2019-01-09T02:51:12.585Z,85.03
2019-01-09T02:53:41.797Z,85.83
2019-01-09T02:56:10.986Z,84.75
2019-01-09T02:58:40.156Z,84.28
2019-01-09T03:01:09.257Z,84.53
2019-01-09T03:03:38.458Z,84.85
2019-01-09T03:06:07.623Z,84.58
2019-01-09T03:08:36.791Z,84.76
2019-01-09T03:11:05.998Z,84.92
2019-01-09T03:13:35.162Z,85.66
2019-01-09T03:16:04.341Z,86.75
2019-01-09T03:18:33.539Z,87.02
2019-01-09T03:21:02.851Z,87.69
2019-01-09T03:23:32.038Z,87.82
2019-01-09T03:26:01.295Z,87.76
2019-01-09T03:28:30.466Z,87.44
2019-01-09T03:30:59.639Z,87.21
2019-01-09T03:33:28.853Z,86.16
2019-01-09T03:35:58.047Z,85.76
2019-01-09T03:38:27.223Z,85.24
2019-01-09T03:40:56.436Z,85.45
2019-01-09T03:43:25.625Z,85.40
2019-01-09T03:45:54.792Z,85.38
2019-01-09T03:48:23.992Z,85.23
2019-01-09T03:50:53.174Z,85.43
2019-01-09T03:53:22.349Z,85.60
2019-01-09T03:55:51.547Z,85.78
2019-01-09T03:58:20.731Z,85.73
2019-01-09T04:00:49.939Z,86.03
2019-01-09T04:03:19.103Z,86.61
2019-01-09T04:05:48.292Z,87.13
2019-01-09T04:08:17.502Z,87.71
2019-01-09T04:10:46.659Z,87.92
2019-01-09T04:13:15.844Z,87.88
2019-01-09T04:15:45.033Z,87.69
2019-01-09T04:18:14.274Z,85.70
2019-01-09T04:20:43.443Z,84.02
2019-01-09T04:23:12.621Z,81.42
2019-01-09T04:25:41.809Z,80.83
2019-01-09T04:28:11.017Z,79.74
2019-01-09T04:30:40.173Z,79.12
2019-01-09T04:33:09.354Z,79.36
2019-01-09T04:35:38.580Z,79.43
2019-01-09T04:38:07.747Z,80.16
2019-01-09T04:40:36.841Z,80.95
2019-01-09T04:43:06.044Z,81.93
2019-01-09T04:45:35.216Z,82.18
2019-01-09T04:48:04.399Z,82.95
2019-01-09T04:50:33.593Z,83.25
2019-01-09T04:53:02.797Z,83.90
2019-01-09T04:55:31.933Z,84.00
2019-01-09T04:58:01.119Z,84.44
2019-01-09T05:00:30.314Z,84.73
2019-01-09T05:02:59.508Z,84.64
2019-01-09T05:05:28.680Z,84.56
2019-01-09T05:07:57.913Z,84.24
2019-01-09T05:10:27.071Z,84.14
2019-01-09T05:12:56.249Z,84.58
2019-01-09T05:15:25.454Z,84.94
2019-01-09T05:17:54.627Z,84.71
2019-01-09T05:20:23.789Z,84.30
2019-01-09T05:22:52.998Z,83.77
2019-01-09T05:25:22.172Z,82.88
2019-01-09T05:27:51.349Z,82.68
2019-01-09T05:30:20.584Z,82.20
2019-01-09T05:32:49.765Z,80.15
2019-01-09T05:35:18.924Z,78.68
2019-01-09T05:37:48.109Z,78.05
2019-01-09T05:40:17.288Z,77.93
2019-01-09T05:42:46.576Z,77.41
2019-01-09T05:45:15.761Z,77.37
2019-01-09T05:47:44.940Z,77.10
2019-01-09T05:50:14.108Z,77.17
2019-01-09T05:52:43.301Z,76.44
2019-01-09T05:55:12.467Z,76.73
2019-01-09T05:57:41.705Z,77.38
2019-01-09T06:00:10.901Z,77.95
2019-01-09T06:02:40.090Z,77.76
2019-01-09T06:05:09.273Z,78.03
2019-01-09T06:07:38.388Z,77.78
2019-01-09T06:10:08.153Z,78.33
2019-01-09T06:12:37.337Z,77.30
2019-01-09T06:15:07.270Z,77.16
2019-01-09T06:17:36.467Z,76.47
2019-01-09T06:20:07.290Z,76.26
2019-01-09T06:22:36.485Z,76.28
2019-01-09T06:25:06.322Z,76.97
2019-01-09T06:27:35.491Z,77.69
2019-01-09T06:30:05.947Z,78.39
2019-01-09T06:32:35.121Z,78.54
2019-01-09T06:35:04.431Z,78.86
2019-01-09T06:37:33.621Z,78.30
2019-01-09T06:40:02.918Z,78.60
2019-01-09T06:42:32.075Z,79.09
2019-01-09T06:45:01.312Z,78.51
2019-01-09T06:47:30.457Z,78.97
2019-01-09T06:49:59.687Z,80.35
2019-01-09T06:52:28.807Z,81.13
2019-01-09T06:54:58.047Z,81.99
2019-01-09T06:57:27.253Z,82.80
2019-01-09T06:59:56.449Z,83.67
2019-01-09T07:02:25.632Z,83.82
2019-01-09T07:04:54.835Z,83.76
2019-01-09T07:07:24.033Z,83.94
2019-01-09T07:09:53.213Z,84.25
2019-01-09T07:12:23.417Z,84.45
2019-01-09T07:14:52.632Z,84.29
2019-01-09T07:17:21.872Z,84.30
2019-01-09T07:19:51.199Z,83.07
2019-01-09T07:22:20.477Z,81.88
2019-01-09T07:24:49.651Z,81.30
2019-01-09T07:27:19.143Z,80.07
2019-01-09T07:29:48.507Z,79.61
2019-01-09T07:32:18.625Z,79.34
2019-01-09T07:34:47.867Z,78.93
2019-01-09T07:37:17.079Z,78.79
2019-01-09T07:39:46.295Z,78.89
2019-01-09T07:42:15.733Z,78.41
2019-01-09T07:44:44.841Z,78.58
2019-01-09T07:47:14.019Z,78.71
2019-01-09T07:49:43.188Z,78.73
2019-01-09T07:52:12.398Z,78.74
2019-01-09T07:54:41.583Z,78.93
2019-01-09T07:57:10.762Z,79.36
2019-01-09T07:59:39.994Z,78.84
2019-01-09T08:02:09.156Z,78.94
2019-01-09T08:04:38.346Z,78.84
2019-01-09T08:07:07.620Z,79.76
2019-01-09T08:09:36.818Z,80.30
2019-01-09T08:12:06.002Z,80.78
2019-01-09T08:14:35.199Z,82.32
2019-01-09T08:17:04.471Z,81.89
2019-01-09T08:19:33.648Z,81.73
2019-01-09T08:22:02.934Z,81.74
2019-01-09T08:24:32.102Z,78.67
2019-01-09T08:27:01.279Z,79.40
2019-01-09T08:29:30.477Z,79.32
2019-01-09T08:31:59.685Z,79.67
2019-01-09T08:34:28.861Z,80.12
2019-01-09T08:36:58.036Z,80.37
2019-01-09T08:39:27.615Z,80.91
2019-01-09T08:41:57.181Z,81.10
2019-01-09T08:44:26.359Z,81.45
2019-01-09T08:46:55.585Z,81.45
2019-01-09T08:49:24.856Z,81.40
2019-01-09T08:51:54.054Z,81.17
2019-01-09T08:54:23.257Z,80.65
2019-01-09T08:56:52.440Z,80.35
2019-01-09T08:59:21.604Z,79.93
2019-01-09T09:01:50.816Z,79.89
2019-01-09T09:04:20.022Z,79.24
2019-01-09T09:06:49.193Z,79.32
2019-01-09T09:09:18.539Z,79.30
2019-01-09T09:11:47.714Z,79.65
2019-01-09T09:14:16.900Z,79.81
2019-01-09T09:16:46.088Z,79.30
2019-01-09T09:19:15.847Z,78.91
2019-01-09T09:21:45.090Z,78.89
2019-01-09T09:24:14.303Z,79.06
2019-01-09T09:26:43.422Z,77.61
2019-01-09T09:29:12.755Z,77.65
2019-01-09T09:31:41.959Z,77.30
2019-01-09T09:34:11.161Z,76.94
2019-01-09T09:36:40.384Z,76.73
2019-01-09T09:39:11.112Z,76.41
2019-01-09T09:41:40.390Z,76.23
2019-01-09T09:44:09.566Z,75.60
2019-01-09T09:46:38.745Z,75.83
2019-01-09T09:49:07.930Z,75.26
2019-01-09T09:51:37.110Z,75.12
2019-01-09T09:54:06.308Z,75.15
2019-01-09T09:56:35.700Z,74.36
2019-01-09T09:59:04.877Z,74.66
2019-01-09T10:01:34.043Z,74.66
2019-01-09T10:04:03.242Z,74.86
2019-01-09T10:06:32.418Z,74.73
2019-01-09T10:09:01.580Z,74.85
2019-01-09T10:11:30.774Z,75.18
2019-01-09T10:13:59.940Z,75.23
2019-01-09T10:16:29.109Z,75.31
2019-01-09T10:18:58.319Z,75.13
2019-01-09T10:21:27.559Z,74.79
2019-01-09T10:23:56.723Z,74.34
2019-01-09T10:26:25.913Z,74.27
2019-01-09T10:28:55.111Z,74.42
2019-01-09T10:31:24.277Z,74.60
2019-01-09T10:33:53.478Z,74.57
2019-01-09T10:36:23.582Z,74.83
2019-01-09T10:38:52.850Z,74.45
2019-01-09T10:41:22.038Z,74.61
2019-01-09T10:43:51.834Z,73.75
2019-01-09T10:46:21.021Z,73.50
2019-01-09T10:48:50.200Z,73.30
2019-01-09T10:51:19.422Z,73.36
2019-01-09T10:53:48.539Z,73.49
2019-01-09T10:56:17.715Z,73.97
2019-01-09T10:58:46.935Z,74.69
2019-01-09T11:01:16.129Z,75.16
2019-01-09T11:03:45.303Z,75.69
2019-01-09T11:06:14.659Z,75.93
2019-01-09T11:08:47.052Z,76.61
2019-01-09T11:11:14.692Z,76.76
2019-01-09T11:13:43.878Z,76.19
2019-01-09T11:16:13.062Z,76.12
2019-01-09T11:18:42.227Z,76.12
2019-01-09T11:21:11.510Z,75.99
2019-01-09T11:23:40.676Z,75.55
2019-01-09T11:26:09.916Z,73.67
2019-01-09T11:28:39.110Z,73.28
2019-01-09T11:31:08.307Z,72.65
2019-01-09T11:33:37.485Z,72.57
2019-01-09T11:36:06.688Z,71.57
2019-01-09T11:38:55.870Z,71.17
2019-01-09T11:41:25.220Z,71.94
2019-01-09T11:43:54.400Z,70.46
2019-01-09T11:46:24.548Z,69.80
2019-01-09T11:48:53.731Z,69.39
2019-01-09T11:51:22.920Z,68.56
2019-01-09T11:53:52.145Z,68.24
2019-01-09T11:56:21.314Z,68.04
2019-01-09T11:58:50.502Z,67.90
2019-01-09T12:01:19.700Z,67.66
2019-01-09T12:03:48.900Z,68.03
2019-01-09T12:06:18.068Z,67.91
2019-01-09T12:08:49.266Z,67.88
2019-01-09T12:11:18.150Z,68.41
2019-01-09T12:13:47.329Z,68.38
2019-01-09T12:16:16.556Z,68.44
2019-01-09T12:18:45.787Z,69.12
2019-01-09T12:21:16.673Z,68.78
2019-01-09T12:23:45.846Z,69.05
2019-01-09T12:26:15.048Z,68.96
2019-01-09T12:28:53.230Z,68.86
2019-01-09T12:31:15.132Z,69.06
2019-01-09T12:33:44.346Z,68.02
2019-01-09T12:36:15.329Z,67.48
2019-01-09T12:38:44.530Z,66.93
2019-01-09T12:41:13.729Z,67.32
2019-01-09T12:43:42.904Z,66.89
2019-01-09T12:46:12.190Z,66.20
2019-01-09T12:48:41.366Z,66.12
2019-01-09T12:51:10.553Z,65.98
2019-01-09T12:53:40.035Z,66.15
2019-01-09T12:56:09.200Z,65.67
2019-01-09T12:58:38.386Z,65.76
2019-01-09T13:01:07.611Z,64.96
2019-01-09T13:03:36.801Z,64.38
2019-01-09T13:06:06.421Z,63.97
2019-01-09T13:08:35.623Z,63.81
2019-01-09T13:11:05.045Z,64.10
2019-01-09T13:13:34.211Z,63.95
2019-01-09T13:16:03.422Z,64.03
2019-01-09T13:18:32.618Z,64.24
2019-01-09T13:21:01.809Z,64.27
2019-01-09T13:23:31.016Z,65.11
2019-01-09T13:26:00.205Z,65.21
2019-01-09T13:28:29.366Z,64.84
2019-01-09T13:30:58.676Z,64.19
2019-01-09T13:33:27.848Z,64.82
2019-01-09T13:35:57.036Z,63.63
2019-01-09T13:38:26.257Z,63.60
2019-01-09T13:40:55.436Z,63.46
2019-01-09T13:43:24.734Z,62.05
2019-01-09T13:45:53.902Z,61.80
2019-01-09T13:48:23.071Z,61.68
2019-01-09T13:50:52.280Z,61.67
2019-01-09T13:53:21.527Z,62.21
2019-01-09T13:55:50.713Z,62.66
2019-01-09T13:58:19.914Z,62.81
2019-01-09T14:00:49.158Z,62.74
2019-01-09T14:03:18.345Z,62.94
2019-01-09T14:05:47.545Z,63.34
2019-01-09T14:08:16.779Z,62.38
2019-01-09T14:10:45.969Z,62.01
2019-01-09T14:13:15.146Z,61.60
2019-01-09T14:15:44.320Z,61.82
2019-01-09T14:18:13.493Z,61.58
2019-01-09T14:20:42.678Z,60.19
2019-01-09T14:23:11.867Z,59.64
2019-01-09T14:25:41.031Z,59.28
2019-01-09T14:28:10.282Z,57.93
2019-01-09T14:30:39.415Z,57.73
2019-01-09T14:33:08.602Z,57.74
2019-01-09T14:35:37.800Z,58.07
2019-01-09T14:38:06.966Z,58.71
2019-01-09T14:40:37.319Z,59.24
2019-01-09T14:43:06.723Z,59.55
2019-01-09T14:45:35.898Z,59.35
2019-01-09T14:48:05.093Z,58.63
2019-01-09T14:50:34.284Z,56.85
2019-01-09T14:53:03.498Z,57.18
2019-01-09T14:55:32.671Z,57.13
2019-01-09T14:58:02.830Z,57.01
2019-01-09T15:00:32.086Z,57.30
2019-01-09T15:03:01.256Z,57.26
2019-01-09T15:05:30.455Z,57.14
2019-01-09T15:07:59.632Z,57.40
2019-01-09T15:10:31.487Z,57.73
2019-01-09T15:13:00.399Z,58.29
2019-01-09T15:15:29.591Z,58.05
2019-01-09T15:17:58.833Z,58.34
2019-01-09T15:20:28.195Z,58.29
2019-01-09T15:22:57.372Z,58.70
2019-01-09T15:25:26.686Z,58.94
2019-01-09T15:27:55.975Z,59.66
2019-01-09T15:30:27.757Z,58.85
2019-01-09T15:32:56.904Z,59.50
2019-01-09T15:35:26.188Z,59.53
2019-01-09T15:37:55.427Z,59.72
2019-01-09T15:40:26.674Z,59.77
2019-01-09T15:42:56.067Z,59.30
2019-01-09T15:45:25.579Z,59.32
2019-01-09T15:47:54.887Z,59.60
2019-01-09T15:50:26.124Z,60.11
2019-01-09T15:52:55.270Z,60.25
2019-01-09T15:55:24.442Z,60.67
2019-01-09T15:57:54.671Z,60.94
2019-01-09T16:00:29.630Z,61.12
2019-01-09T16:02:58.861Z,61.13
2019-01-09T16:05:28.051Z,60.90
2019-01-09T16:07:57.224Z,60.65
2019-01-09T16:10:26.856Z,60.53
2019-01-09T16:12:56.113Z,60.98
2019-01-09T16:15:25.291Z,60.50
2019-01-09T16:17:54.524Z,60.58
2019-01-09T16:20:24.008Z,60.34
2019-01-09T16:22:53.211Z,60.85
2019-01-09T16:25:22.455Z,60.65
2019-01-09T16:27:51.652Z,60.54
2019-01-09T16:30:34.283Z,60.83
2019-01-09T16:33:03.862Z,60.94
2019-01-09T16:35:35.271Z,61.06
2019-01-09T16:38:04.502Z,60.96
2019-01-09T16:40:33.787Z,61.15
2019-01-09T16:43:04.294Z,61.30
2019-01-09T16:45:34.384Z,61.10
2019-01-09T16:48:03.620Z,61.47
2019-01-09T16:50:33.747Z,61.88
2019-01-09T16:53:04.512Z,61.99
2019-01-09T16:55:33.700Z,61.81
2019-01-09T16:58:02.928Z,62.21
2019-01-09T17:00:40.098Z,62.42
2019-01-09T17:03:09.397Z,62.41
2019-01-09T17:05:39.857Z,62.50
2019-01-09T17:08:09.113Z,62.33
2019-01-09T17:10:38.324Z,62.44
2019-01-09T17:13:07.529Z,62.67
2019-01-09T17:15:36.708Z,62.14
2019-01-09T17:18:06.932Z,62.29
2019-01-09T17:20:36.114Z,62.61
2019-01-09T17:23:05.291Z,62.71
2019-01-09T17:25:34.482Z,63.06
2019-01-09T17:28:04.508Z,63.11
2019-01-09T17:30:33.674Z,63.13
2019-01-09T17:33:02.861Z,62.83
2019-01-09T17:35:32.034Z,63.07
2019-01-09T17:38:01.201Z,62.44
2019-01-09T17:40:30.387Z,62.33
2019-01-09T17:42:59.582Z,62.51
2019-01-09T17:45:28.777Z,62.88
2019-01-09T17:47:58.419Z,62.79
2019-01-09T17:50:32.974Z,62.81
2019-01-09T17:53:02.181Z,62.90
2019-01-09T17:55:31.468Z,62.95
2019-01-09T17:58:00.667Z,63.15
2019-01-09T18:00:40.878Z,62.94
2019-01-09T18:03:10.146Z,63.05
2019-01-09T18:05:39.394Z,63.01
2019-01-09T18:08:10.983Z,63.28
2019-01-09T18:10:39.543Z,63.55
2019-01-09T18:13:09.104Z,63.33
2019-01-09T18:15:38.296Z,63.50
2019-01-09T18:18:07.466Z,63.54
2019-01-09T18:20:36.637Z,63.66
2019-01-09T18:23:05.968Z,63.95
2019-01-09T18:25:35.076Z,63.97
2019-01-09T18:28:04.261Z,64.03
2019-01-09T18:30:48.243Z,64.02
2019-01-09T18:33:23.136Z,63.98
2019-01-09T18:36:04.423Z,63.89
2019-01-09T18:38:39.222Z,64.21
2019-01-09T18:41:11.494Z,64.34
2019-01-09T18:43:49.534Z,64.17
2019-01-09T18:46:39.951Z,64.42
2019-01-09T18:49:36.284Z,64.33
2019-01-09T18:52:20.556Z,64.72
2019-01-09T18:54:49.678Z,64.85
2019-01-09T18:57:37.104Z,64.78
2019-01-09T19:00:26.560Z,64.85
2019-01-09T19:02:55.750Z,64.85
2019-01-09T19:05:25.060Z,64.77
2019-01-09T19:07:54.250Z,64.71
2019-01-09T19:10:23.800Z,64.84
2019-01-09T19:12:53.104Z,64.65
2019-01-09T19:15:22.411Z,64.64
2019-01-09T19:17:51.641Z,64.81
2019-01-09T19:20:20.914Z,64.73
2019-01-09T19:22:50.582Z,64.89
2019-01-09T19:25:19.856Z,64.82
2019-01-09T19:27:49.182Z,64.71
2019-01-09T19:30:27.259Z,65.24
2019-01-09T19:32:56.523Z,65.25
2019-01-09T19:35:25.837Z,65.36
2019-01-09T19:37:55.047Z,65.69
2019-01-09T19:40:24.595Z,65.71
2019-01-09T19:42:54.219Z,65.79
2019-01-09T19:45:23.414Z,66.09
2019-01-09T19:47:52.594Z,66.02
2019-01-09T19:50:24.766Z,66.20
2019-01-09T19:52:53.952Z,66.19
2019-01-09T19:55:24.674Z,66.38
2019-01-09T19:57:53.993Z,66.44
2019-01-09T20:00:26.802Z,66.79
2019-01-09T20:02:56.316Z,66.83
2019-01-09T20:05:25.630Z,66.93
2019-01-09T20:07:54.833Z,67.17
2019-01-09T20:10:26.118Z,67.14
2019-01-09T20:12:55.439Z,67.54
2019-01-09T20:15:24.818Z,67.33
2019-01-09T20:17:54.018Z,67.27
2019-01-09T20:20:23.250Z,67.87
2019-01-09T20:22:52.458Z,67.76
2019-01-09T20:25:21.667Z,67.87
2019-01-09T20:27:51.002Z,68.17
2019-01-09T20:30:25.992Z,68.37
2019-01-09T20:32:55.182Z,68.47
2019-01-09T20:35:26.387Z,68.60
2019-01-09T20:37:55.617Z,68.47
2019-01-09T20:40:30.687Z,68.87
2019-01-09T20:42:59.922Z,69.26
2019-01-09T20:45:29.069Z,69.44
2019-01-09T20:47:58.247Z,69.71
2019-01-09T20:50:28.253Z,69.76
2019-01-09T20:52:57.570Z,69.99
2019-01-09T20:55:27.251Z,70.06
2019-01-09T20:57:56.511Z,70.24
2019-01-09T21:00:27.691Z,70.13
2019-01-09T21:02:59.264Z,70.39
2019-01-09T21:05:32.594Z,70.59
2019-01-09T21:08:01.815Z,70.42
2019-01-09T21:10:31.012Z,70.39
2019-01-09T21:13:00.266Z,70.59
2019-01-09T21:15:29.472Z,70.38
2019-01-09T21:17:58.666Z,70.49
2019-01-09T21:20:27.850Z,70.34
2019-01-09T21:22:57.063Z,70.53
2019-01-09T21:25:26.363Z,70.77
2019-01-09T21:27:55.587Z,71.04
2019-01-09T21:30:26.290Z,71.07
2019-01-09T21:32:56.457Z,71.40
2019-01-09T21:35:25.746Z,71.39
2019-01-09T21:37:54.886Z,71.50
2019-01-09T21:40:26.437Z,71.92
2019-01-09T21:42:55.689Z,71.72
2019-01-09T21:45:24.891Z,71.66
2019-01-09T21:47:54.551Z,71.72
2019-01-09T21:50:25.178Z,71.80
2019-01-09T21:52:54.489Z,71.87
2019-01-09T21:55:23.755Z,72.06
2019-01-09T21:57:52.945Z,72.08
2019-01-09T22:00:26.453Z,72.19
2019-01-09T22:02:55.741Z,72.59
2019-01-09T22:05:25.190Z,72.76
2019-01-09T22:07:54.515Z,72.70
2019-01-09T22:10:29.420Z,72.70
2019-01-09T22:12:59.046Z,73.08
2019-01-09T22:15:28.276Z,73.22
2019-01-09T22:17:57.576Z,73.23
2019-01-09T22:20:26.840Z,73.47
2019-01-09T22:22:56.092Z,73.43
2019-01-09T22:25:25.305Z,73.88
2019-01-09T22:27:54.489Z,73.78
2019-01-09T22:30:26.166Z,74.01
2019-01-09T22:32:55.430Z,73.95
2019-01-09T22:35:24.740Z,74.00
2019-01-09T22:37:53.965Z,73.97
2019-01-09T22:40:32.096Z,74.05
2019-01-09T22:43:01.279Z,74.11
2019-01-09T22:45:30.463Z,74.22
2019-01-09T22:47:59.753Z,74.01
2019-01-09T22:50:28.926Z,74.17
2019-01-09T22:52:58.191Z,74.14
2019-01-09T22:55:27.457Z,74.39
2019-01-09T22:57:56.633Z,74.50
2019-01-09T23:00:32.676Z,74.57
2019-01-09T23:03:10.117Z,74.56
2019-01-09T23:05:36.202Z,74.69
2019-01-09T23:08:05.644Z,74.55
2019-01-09T23:10:35.861Z,74.75
2019-01-09T23:13:05.217Z,74.87
2019-01-09T23:15:34.503Z,74.83
2019-01-09T23:18:03.746Z,75.06
2019-01-09T23:20:32.971Z,75.32
2019-01-09T23:23:02.172Z,75.23
2019-01-09T23:25:31.427Z,75.62
2019-01-09T23:28:00.621Z,75.81
2019-01-09T23:30:30.887Z,75.95
2019-01-09T23:33:01.197Z,75.97
2019-01-09T23:35:30.715Z,75.99
2019-01-09T23:38:00.084Z,76.26
2019-01-09T23:40:29.253Z,76.51
2019-01-09T23:42:59.425Z,76.73
2019-01-09T23:45:28.631Z,76.74
2019-01-09T23:47:57.810Z,76.67
2019-01-09T23:50:27.008Z,77.00
2019-01-09T23:52:56.216Z,77.01
2019-01-09T23:55:25.382Z,76.91
2019-01-09T23:57:54.571Z,76.99
